Metar/Speci

METEOROLOGICAL AERODROME REPORT
STASIUN METEOROLOGI HANG NADIM BATAM

ADDS - METARS form results

(0857 UTC 13 December 2019)
Data provider http://aviationweather.gov/metar/data/
 
Forecast for: WIDD (HANG NADIM , ID)
Text: TAF WIDD 130500Z 1306/1406 35008KT 9999 SCT014
Forecast period: 0600 UTC 13 December 2019 to 0600 UTC 14 December 2019
Forecast type: FROM: standard forecast or significant change
Winds: from the N (350 degrees) at 9 MPH (8 knots; 4.1 m/s)
Visibility: 6 or more miles 10+ km)
Ceiling: at least 12,000 feet AGL
Clouds: scattered clouds at 1400 feet AGL
Weather: no significant weather forecast for this period
Text: PROB30
Forecast period: 0800 to 1000 UTC 13 December 2019
Forecast type: TEMPORARY: The following changes expected for less than half the time period
Visibility: 3 miles (5 km)
Ceiling: unknown
Clouds: missing
Weather: -RA  (light rain)

Informasi METAR/SPECI dapat diakses juga di http://aviation.bmkg.go.id